• Join FlightAware (Why Join?)
  • Login
  • US Flag 
01:28AM EDT


 

Airport Tracker/Info


-or-


 

Live Flight TrackerFlight Track Log ✈ EJA122 ✈ 13-May-2013 ✈ KSUA - KSGJ

Flight Track Log - Related Links

Times and Time Zones

All times are in EDT time to prevent confusion due to time zone crossing. See the EJA122 flight status page for this flight to view local times or setup timezone preferences in your user account.

Time Position Orientation Groundspeed Altitude Reporting Facility
EDT Latitude Longitude Course Direction KTS MPH feet Rate Location/Type
06:40AM 27.2053 -80.2992 318° Northwest 172 198 2,600  Level Miami Center
06:41AM 27.2186 -80.3461 288° West 172 198 4,100 1,620 Climbing Miami Center
06:42AM 27.2678 -80.3897 322° Northwest 190 219 5,900 2,400 Climbing Miami Center
06:43AM 27.3356 -80.4386 327° Northwest 253 291 8,900 2,700 Climbing Miami Center
06:44AM 27.3992 -80.4850 327° Northwest 272 313 11,400 2,520 Climbing Miami Center
06:45AM 27.4112 -80.6446 318° Northwest  Level FlightAware Approximate
06:45AM 27.4647 -80.5314 328° Northwest 272 313 14,000  Level Miami Center
06:46AM 27.5242 -80.5756 327° Northwest 278 320 16,500 2,400 Climbing Miami Center
06:47AM 27.5875 -80.6267 324° Northwest 278 320 18,800 1,860 Climbing Miami Center
06:48AM 27.6531 -80.6758 326° Northwest 278 320 20,300 1,080 Climbing Miami Center
06:49AM 27.7267 -80.7300 327° Northwest 299 344 21,000 300 Climbing Miami Center
06:50AM 27.8208 -80.7989 327° Northwest 346 398 21,000  Level Miami Center
06:51AM 27.9314 -80.8803 327° Northwest 378 435 21,000  Level Miami Center
06:52AM 28.0233 -80.9492 327° Northwest 395 455 21,000  Level Miami Center
06:53AM 28.1133 -81.0139 328° Northwest 411 473 21,000  Level Miami Center
06:54AM 28.2092 -81.0833 327° Northwest 416 479 21,000  Level Miami Center
06:56AM 28.4336 -81.2494 327° Northwest 415 478 21,000  Level Jacksonville Center
06:57AM 28.5508 -81.2689 352° North 415 478 21,000 -360 Level Jacksonville Center
06:58AM 28.6719 -81.2717 359° North 416 479 20,300 -1,440 Descending Jacksonville Center
06:59AM 28.7908 -81.2792 357° North 428 493 18,200 -1,740 Descending Jacksonville Center
07:00AM 28.9036 -81.2750 North 414 476 16,900 -660 Descending Jacksonville Center
07:01AM 29.0139 -81.2567 North 402 463 16,900  Level Jacksonville Center
07:02AM 29.1286 -81.2406 North 407 468 16,900 -300 Level Jacksonville Center
07:03AM 29.2181 -81.2294 North 449 517 16,400 -900 Descending Jacksonville Center
07:03AM 29.2453 -81.2242 10° North 413 475 16,000 -1,740 Descending Jacksonville Center
07:04AM 29.3058 -81.2375 349° North 369 425 15,000 -1,740 Descending Jacksonville Center
07:04AM 29.3456 -81.2417 355° North 389 448 14,300 -1,620 Descending Jacksonville Center
07:05AM 29.4042 -81.2525 351° North 343 395 13,400 -1,500 Descending Jacksonville Center
07:05AM 29.4439 -81.2519 North 366 421 12,800 -1,980 Descending Jacksonville Center
07:06AM 29.5006 -81.2675 347° North 349 402 11,400 -2,340 Descending Jacksonville Center
07:06AM 29.5361 -81.2719 354° North 347 399 10,500 -2,640 Descending Jacksonville Center
07:07AM 29.5800 -81.2783 353° North 306 352 9,000 -2,520 Descending Jacksonville Center
07:07AM 29.6175 -81.2847 352° North 318 366 8,000 -2,520 Descending Jacksonville Center
07:07AM 29.6425 -81.2867 356° North 278 320 7,000 -2,520 Descending Jacksonville Center
07:08AM 29.6928 -81.2978 349° North 293 337 5,500 -2,520 Descending Jacksonville Center
07:09AM 29.7283 -81.2972 North 272 313 4,200 -2,520 Descending Jacksonville Center
07:09AM 29.7661 -81.3061 348° North 270 311 3,000 -2,220 Descending Jacksonville Center
07:10AM 29.7994 -81.3106 353° North 263 303 2,000 -1,020 Descending Jacksonville Center
07:10AM 29.8350 -81.3172 351° North 265 305 2,000 -120 Level Jacksonville Center
07:11AM 29.8706 -81.3214 354° North 244 281 1,900  Descending Jacksonville Center
07:11AM 29.8978 -81.3258 352° North 240 276 2,000 -840 Climbing Jacksonville Center
07:12AM 29.9122 -81.3158 31° Northeast 125 144 1,100 -2,280 Descending Jacksonville Center